sensor_id;sensor_type;location;lat;lon;timestamp;temperature;humidity
70184;DHT22;57554;51.546;6.776;2023-10-13T00:01:47;18.70;80.60
70184;DHT22;57554;51.546;6.776;2023-10-13T00:04:13;18.70;80.70
70184;DHT22;57554;51.546;6.776;2023-10-13T00:06:39;18.70;80.70
70184;DHT22;57554;51.546;6.776;2023-10-13T00:09:04;18.70;80.70
70184;DHT22;57554;51.546;6.776;2023-10-13T00:11:30;18.70;80.70
70184;DHT22;57554;51.546;6.776;2023-10-13T00:13:55;18.70;80.70
70184;DHT22;57554;51.546;6.776;2023-10-13T00:16:22;18.70;80.60
70184;DHT22;57554;51.546;6.776;2023-10-13T00:18:48;18.70;80.60
70184;DHT22;57554;51.546;6.776;2023-10-13T00:21:16;18.70;80.50
70184;DHT22;57554;51.546;6.776;2023-10-13T00:23:56;18.70;80.50
70184;DHT22;57554;51.546;6.776;2023-10-13T00:26:23;18.70;80.30
70184;DHT22;57554;51.546;6.776;2023-10-13T00:28:52;18.70;80.30
70184;DHT22;57554;51.546;6.776;2023-10-13T00:31:25;18.70;80.30
70184;DHT22;57554;51.546;6.776;2023-10-13T00:34:04;18.70;80.20
70184;DHT22;57554;51.546;6.776;2023-10-13T00:36:48;18.70;80.30
70184;DHT22;57554;51.546;6.776;2023-10-13T00:39:15;18.70;80.20
70184;DHT22;57554;51.546;6.776;2023-10-13T00:41:43;18.80;80.20
70184;DHT22;57554;51.546;6.776;2023-10-13T00:44:17;18.80;80.20
70184;DHT22;57554;51.546;6.776;2023-10-13T00:46:44;18.80;80.20
70184;DHT22;57554;51.546;6.776;2023-10-13T00:49:12;18.80;80.10
70184;DHT22;57554;51.546;6.776;2023-10-13T00:51:42;18.80;80.20
70184;DHT22;57554;51.546;6.776;2023-10-13T00:54:12;18.80;80.20
70184;DHT22;57554;51.546;6.776;2023-10-13T00:56:39;18.80;80.20
70184;DHT22;57554;51.546;6.776;2023-10-13T00:59:30;18.80;80.20
70184;DHT22;57554;51.546;6.776;2023-10-13T01:02:02;18.80;80.20
70184;DHT22;57554;51.546;6.776;2023-10-13T01:04:48;18.80;80.30
70184;DHT22;57554;51.546;6.776;2023-10-13T01:07:14;18.80;80.20
70184;DHT22;57554;51.546;6.776;2023-10-13T01:09:47;18.90;80.30
70184;DHT22;57554;51.546;6.776;2023-10-13T01:12:13;18.90;80.10
70184;DHT22;57554;51.546;6.776;2023-10-13T01:14:40;18.90;80.10
70184;DHT22;57554;51.546;6.776;2023-10-13T01:17:05;18.90;80.00
70184;DHT22;57554;51.546;6.776;2023-10-13T01:19:36;19.00;80.00
70184;DHT22;57554;51.546;6.776;2023-10-13T01:22:04;19.00;79.90
70184;DHT22;57554;51.546;6.776;2023-10-13T01:24:32;19.00;79.90
70184;DHT22;57554;51.546;6.776;2023-10-13T01:27:07;19.00;79.80
70184;DHT22;57554;51.546;6.776;2023-10-13T01:29:43;19.00;79.80
70184;DHT22;57554;51.546;6.776;2023-10-13T01:32:18;19.00;79.80
70184;DHT22;57554;51.546;6.776;2023-10-13T01:34:43;19.00;79.90
70184;DHT22;57554;51.546;6.776;2023-10-13T01:37:13;19.00;79.90
70184;DHT22;57554;51.546;6.776;2023-10-13T01:39:41;19.00;80.00
70184;DHT22;57554;51.546;6.776;2023-10-13T01:42:07;19.00;80.00
70184;DHT22;57554;51.546;6.776;2023-10-13T01:44:33;19.00;80.00
70184;DHT22;57554;51.546;6.776;2023-10-13T01:46:59;19.00;80.00
70184;DHT22;57554;51.546;6.776;2023-10-13T01:49:26;19.10;80.10
70184;DHT22;57554;51.546;6.776;2023-10-13T01:51:51;19.10;80.10
70184;DHT22;57554;51.546;6.776;2023-10-13T01:54:17;19.10;80.10
70184;DHT22;57554;51.546;6.776;2023-10-13T01:56:43;19.10;80.10
70184;DHT22;57554;51.546;6.776;2023-10-13T01:59:11;19.10;80.10
70184;DHT22;57554;51.546;6.776;2023-10-13T02:01:38;19.10;80.10
70184;DHT22;57554;51.546;6.776;2023-10-13T02:04:03;19.10;80.10
70184;DHT22;57554;51.546;6.776;2023-10-13T02:06:38;19.10;80.00
70184;DHT22;57554;51.546;6.776;2023-10-13T02:09:06;19.10;80.00
70184;DHT22;57554;51.546;6.776;2023-10-13T02:11:41;19.10;80.00
70184;DHT22;57554;51.546;6.776;2023-10-13T02:14:07;19.10;80.00
70184;DHT22;57554;51.546;6.776;2023-10-13T02:16:36;19.10;80.00
70184;DHT22;57554;51.546;6.776;2023-10-13T02:19:02;19.10;80.00
70184;DHT22;57554;51.546;6.776;2023-10-13T02:21:31;19.10;79.90
70184;DHT22;57554;51.546;6.776;2023-10-13T02:24:00;19.10;80.00
70184;DHT22;57554;51.546;6.776;2023-10-13T02:26:26;19.10;80.10
70184;DHT22;57554;51.546;6.776;2023-10-13T02:29:04;19.10;80.10
70184;DHT22;57554;51.546;6.776;2023-10-13T02:31:36;19.20;80.20
70184;DHT22;57554;51.546;6.776;2023-10-13T02:34:02;19.20;80.00
70184;DHT22;57554;51.546;6.776;2023-10-13T02:36:33;19.20;79.90
70184;DHT22;57554;51.546;6.776;2023-10-13T02:39:09;19.20;79.70
70184;DHT22;57554;51.546;6.776;2023-10-13T02:41:35;19.20;79.70
70184;DHT22;57554;51.546;6.776;2023-10-13T02:44:05;19.20;79.60
70184;DHT22;57554;51.546;6.776;2023-10-13T02:46:32;19.30;79.50
70184;DHT22;57554;51.546;6.776;2023-10-13T02:49:01;19.20;79.50
70184;DHT22;57554;51.546;6.776;2023-10-13T02:51:35;19.20;79.50
70184;DHT22;57554;51.546;6.776;2023-10-13T02:54:07;19.20;79.50
70184;DHT22;57554;51.546;6.776;2023-10-13T02:56:38;19.20;79.60
70184;DHT22;57554;51.546;6.776;2023-10-13T02:59:14;19.20;79.60
70184;DHT22;57554;51.546;6.776;2023-10-13T03:01:39;19.30;79.60
70184;DHT22;57554;51.546;6.776;2023-10-13T03:04:05;19.30;79.30
70184;DHT22;57554;51.546;6.776;2023-10-13T03:06:38;19.30;79.20
70184;DHT22;57554;51.546;6.776;2023-10-13T03:09:08;19.30;79.10
70184;DHT22;57554;51.546;6.776;2023-10-13T03:11:51;19.30;78.90
70184;DHT22;57554;51.546;6.776;2023-10-13T03:14:17;19.30;78.90
70184;DHT22;57554;51.546;6.776;2023-10-13T03:16:53;19.30;78.90
70184;DHT22;57554;51.546;6.776;2023-10-13T03:19:19;19.30;78.80
70184;DHT22;57554;51.546;6.776;2023-10-13T03:21:45;19.30;78.80
70184;DHT22;57554;51.546;6.776;2023-10-13T03:24:21;19.30;78.90
70184;DHT22;57554;51.546;6.776;2023-10-13T03:27:04;19.20;78.90
70184;DHT22;57554;51.546;6.776;2023-10-13T03:29:38;19.20;79.00
70184;DHT22;57554;51.546;6.776;2023-10-13T03:32:11;19.20;79.00
70184;DHT22;57554;51.546;6.776;2023-10-13T03:34:38;19.20;79.00
70184;DHT22;57554;51.546;6.776;2023-10-13T03:37:11;19.20;79.00
70184;DHT22;57554;51.546;6.776;2023-10-13T03:39:43;19.20;79.10
70184;DHT22;57554;51.546;6.776;2023-10-13T03:42:11;19.20;79.10
70184;DHT22;57554;51.546;6.776;2023-10-13T03:44:47;19.20;79.20
70184;DHT22;57554;51.546;6.776;2023-10-13T03:47:13;19.10;79.20
70184;DHT22;57554;51.546;6.776;2023-10-13T03:49:55;19.10;79.20
70184;DHT22;57554;51.546;6.776;2023-10-13T03:52:40;19.10;79.20
70184;DHT22;57554;51.546;6.776;2023-10-13T03:55:06;19.10;79.30
70184;DHT22;57554;51.546;6.776;2023-10-13T03:57:32;19.00;79.40
70184;DHT22;57554;51.546;6.776;2023-10-13T04:00:04;19.10;79.40
70184;DHT22;57554;51.546;6.776;2023-10-13T04:02:35;19.10;79.50
70184;DHT22;57554;51.546;6.776;2023-10-13T04:05:02;19.10;79.40
70184;DHT22;57554;51.546;6.776;2023-10-13T04:07:34;19.10;79.50
70184;DHT22;57554;51.546;6.776;2023-10-13T04:10:26;19.10;79.40
70184;DHT22;57554;51.546;6.776;2023-10-13T04:13:09;19.10;79.40
70184;DHT22;57554;51.546;6.776;2023-10-13T04:15:43;19.10;79.50
70184;DHT22;57554;51.546;6.776;2023-10-13T04:18:28;19.10;79.50
70184;DHT22;57554;51.546;6.776;2023-10-13T04:21:12;19.10;79.60
70184;DHT22;57554;51.546;6.776;2023-10-13T04:23:56;19.00;79.60
70184;DHT22;57554;51.546;6.776;2023-10-13T04:26:34;19.00;79.80
70184;DHT22;57554;51.546;6.776;2023-10-13T04:29:22;18.90;80.00
70184;DHT22;57554;51.546;6.776;2023-10-13T04:32:07;18.90;80.20
70184;DHT22;57554;51.546;6.776;2023-10-13T04:34:39;18.90;80.20
70184;DHT22;57554;51.546;6.776;2023-10-13T04:37:05;18.90;80.20
70184;DHT22;57554;51.546;6.776;2023-10-13T04:39:48;18.90;80.30
70184;DHT22;57554;51.546;6.776;2023-10-13T04:42:22;18.90;80.40
70184;DHT22;57554;51.546;6.776;2023-10-13T04:45:09;18.90;80.40
70184;DHT22;57554;51.546;6.776;2023-10-13T04:48:02;18.90;80.50
70184;DHT22;57554;51.546;6.776;2023-10-13T04:50:47;18.90;80.40
70184;DHT22;57554;51.546;6.776;2023-10-13T04:53:17;18.80;80.50
70184;DHT22;57554;51.546;6.776;2023-10-13T04:55:56;18.80;80.60
70184;DHT22;57554;51.546;6.776;2023-10-13T04:58:27;18.80;80.70
70184;DHT22;57554;51.546;6.776;2023-10-13T05:01:00;18.80;80.80
70184;DHT22;57554;51.546;6.776;2023-10-13T05:03:54;18.80;80.90
70184;DHT22;57554;51.546;6.776;2023-10-13T05:06:40;18.80;81.00
70184;DHT22;57554;51.546;6.776;2023-10-13T05:09:12;18.80;80.90
70184;DHT22;57554;51.546;6.776;2023-10-13T05:11:56;18.80;80.80
70184;DHT22;57554;51.546;6.776;2023-10-13T05:14:40;18.80;80.90
70184;DHT22;57554;51.546;6.776;2023-10-13T05:17:24;18.80;80.80
70184;DHT22;57554;51.546;6.776;2023-10-13T05:20:09;18.80;80.90
70184;DHT22;57554;51.546;6.776;2023-10-13T05:22:53;18.80;80.90
70184;DHT22;57554;51.546;6.776;2023-10-13T05:25:38;18.80;81.00
70184;DHT22;57554;51.546;6.776;2023-10-13T05:28:22;18.80;81.10
70184;DHT22;57554;51.546;6.776;2023-10-13T05:31:07;18.80;81.10
70184;DHT22;57554;51.546;6.776;2023-10-13T05:33:52;18.80;81.20
70184;DHT22;57554;51.546;6.776;2023-10-13T05:36:37;18.80;81.30
70184;DHT22;57554;51.546;6.776;2023-10-13T05:39:21;18.80;81.40
70184;DHT22;57554;51.546;6.776;2023-10-13T05:42:05;18.80;81.50
70184;DHT22;57554;51.546;6.776;2023-10-13T05:44:50;18.70;81.70
70184;DHT22;57554;51.546;6.776;2023-10-13T05:47:33;18.70;82.00
70184;DHT22;57554;51.546;6.776;2023-10-13T05:50:07;18.70;82.30
70184;DHT22;57554;51.546;6.776;2023-10-13T05:52:39;18.70;82.30
70184;DHT22;57554;51.546;6.776;2023-10-13T05:55:27;18.70;82.50
70184;DHT22;57554;51.546;6.776;2023-10-13T05:58:12;18.70;82.60
70184;DHT22;57554;51.546;6.776;2023-10-13T06:00:56;18.70;82.70
70184;DHT22;57554;51.546;6.776;2023-10-13T06:03:41;18.70;82.80
70184;DHT22;57554;51.546;6.776;2023-10-13T06:06:25;18.70;83.00
70184;DHT22;57554;51.546;6.776;2023-10-13T06:09:09;18.60;83.10
70184;DHT22;57554;51.546;6.776;2023-10-13T06:11:54;18.60;83.30
70184;DHT22;57554;51.546;6.776;2023-10-13T06:14:38;18.70;83.50
70184;DHT22;57554;51.546;6.776;2023-10-13T06:17:23;18.70;83.60
70184;DHT22;57554;51.546;6.776;2023-10-13T06:20:07;18.70;83.60
70184;DHT22;57554;51.546;6.776;2023-10-13T06:22:51;18.80;83.60
70184;DHT22;57554;51.546;6.776;2023-10-13T06:25:35;18.80;83.60
70184;DHT22;57554;51.546;6.776;2023-10-13T06:28:19;18.90;83.50
70184;DHT22;57554;51.546;6.776;2023-10-13T06:31:05;18.80;83.50
70184;DHT22;57554;51.546;6.776;2023-10-13T06:33:36;18.90;83.50
70184;DHT22;57554;51.546;6.776;2023-10-13T06:36:07;18.90;83.60
70184;DHT22;57554;51.546;6.776;2023-10-13T06:38:37;18.90;83.70
70184;DHT22;57554;51.546;6.776;2023-10-13T06:41:06;18.90;83.70
70184;DHT22;57554;51.546;6.776;2023-10-13T06:43:36;19.00;83.80
70184;DHT22;57554;51.546;6.776;2023-10-13T06:46:09;19.00;83.80
70184;DHT22;57554;51.546;6.776;2023-10-13T06:48:40;19.00;83.80
70184;DHT22;57554;51.546;6.776;2023-10-13T06:51:06;19.10;83.60
70184;DHT22;57554;51.546;6.776;2023-10-13T06:53:47;19.10;83.50
70184;DHT22;57554;51.546;6.776;2023-10-13T06:56:17;19.10;83.40
70184;DHT22;57554;51.546;6.776;2023-10-13T06:58:51;19.10;83.40
70184;DHT22;57554;51.546;6.776;2023-10-13T07:01:16;19.10;83.30
70184;DHT22;57554;51.546;6.776;2023-10-13T07:03:47;19.10;83.30
70184;DHT22;57554;51.546;6.776;2023-10-13T07:06:18;19.20;83.30
70184;DHT22;57554;51.546;6.776;2023-10-13T07:08:46;19.20;83.30
70184;DHT22;57554;51.546;6.776;2023-10-13T07:11:26;19.30;83.20
70184;DHT22;57554;51.546;6.776;2023-10-13T07:14:02;19.30;83.10
70184;DHT22;57554;51.546;6.776;2023-10-13T07:17:01;19.30;83.00
70184;DHT22;57554;51.546;6.776;2023-10-13T07:19:28;19.40;82.90
70184;DHT22;57554;51.546;6.776;2023-10-13T07:22:01;19.50;82.70
70184;DHT22;57554;51.546;6.776;2023-10-13T07:24:47;19.50;82.70
70184;DHT22;57554;51.546;6.776;2023-10-13T07:27:22;19.50;82.60
70184;DHT22;57554;51.546;6.776;2023-10-13T07:29:52;19.60;82.50
70184;DHT22;57554;51.546;6.776;2023-10-13T07:32:36;19.60;82.40
70184;DHT22;57554;51.546;6.776;2023-10-13T07:35:02;19.70;82.20
70184;DHT22;57554;51.546;6.776;2023-10-13T07:37:37;19.70;82.20
70184;DHT22;57554;51.546;6.776;2023-10-13T07:40:10;19.80;82.10
70184;DHT22;57554;51.546;6.776;2023-10-13T07:43:08;19.80;81.90
70184;DHT22;57554;51.546;6.776;2023-10-13T07:45:37;19.90;81.80
70184;DHT22;57554;51.546;6.776;2023-10-13T07:48:10;19.90;81.80
70184;DHT22;57554;51.546;6.776;2023-10-13T07:50:58;20.00;81.70
70184;DHT22;57554;51.546;6.776;2023-10-13T07:53:27;20.10;81.60
70184;DHT22;57554;51.546;6.776;2023-10-13T07:55:53;20.20;81.50
70184;DHT22;57554;51.546;6.776;2023-10-13T07:58:24;20.30;81.30
70184;DHT22;57554;51.546;6.776;2023-10-13T08:00:53;20.40;81.20
70184;DHT22;57554;51.546;6.776;2023-10-13T08:03:24;20.40;81.10
70184;DHT22;57554;51.546;6.776;2023-10-13T08:06:05;20.50;81.00
70184;DHT22;57554;51.546;6.776;2023-10-13T08:08:32;20.50;80.60
70184;DHT22;57554;51.546;6.776;2023-10-13T08:13:46;20.50;80.40
70184;DHT22;57554;51.546;6.776;2023-10-13T08:16:15;20.50;80.40
70184;DHT22;57554;51.546;6.776;2023-10-13T08:18:50;20.50;80.30
70184;DHT22;57554;51.546;6.776;2023-10-13T08:21:19;20.60;80.20
70184;DHT22;57554;51.546;6.776;2023-10-13T08:23:57;20.70;80.30
70184;DHT22;57554;51.546;6.776;2023-10-13T08:26:28;20.90;80.30
70184;DHT22;57554;51.546;6.776;2023-10-13T08:28:58;21.20;79.70
70184;DHT22;57554;51.546;6.776;2023-10-13T08:31:50;21.30;78.80
70184;DHT22;57554;51.546;6.776;2023-10-13T08:34:36;21.40;78.30
70184;DHT22;57554;51.546;6.776;2023-10-13T08:37:32;21.50;77.90
70184;DHT22;57554;51.546;6.776;2023-10-13T08:40:27;21.60;77.40
70184;DHT22;57554;51.546;6.776;2023-10-13T08:43:12;21.70;76.80
70184;DHT22;57554;51.546;6.776;2023-10-13T08:45:42;21.80;76.40
70184;DHT22;57554;51.546;6.776;2023-10-13T08:48:10;21.80;76.20
70184;DHT22;57554;51.546;6.776;2023-10-13T08:50:39;22.00;75.80
70184;DHT22;57554;51.546;6.776;2023-10-13T08:53:24;22.00;75.10
70184;DHT22;57554;51.546;6.776;2023-10-13T08:58:51;22.00;74.40
70184;DHT22;57554;51.546;6.776;2023-10-13T09:01:33;22.00;74.00
70184;DHT22;57554;51.546;6.776;2023-10-13T09:04:15;22.00;73.30
70184;DHT22;57554;51.546;6.776;2023-10-13T09:06:45;22.00;73.20
70184;DHT22;57554;51.546;6.776;2023-10-13T09:09:23;22.10;72.70
70184;DHT22;57554;51.546;6.776;2023-10-13T09:11:53;22.10;72.50
70184;DHT22;57554;51.546;6.776;2023-10-13T09:14:33;22.10;72.00
70184;DHT22;57554;51.546;6.776;2023-10-13T09:17:05;22.10;71.70
70184;DHT22;57554;51.546;6.776;2023-10-13T09:19:51;22.20;70.90
70184;DHT22;57554;51.546;6.776;2023-10-13T09:22:26;22.30;71.00
70184;DHT22;57554;51.546;6.776;2023-10-13T09:24:57;22.40;70.40
70184;DHT22;57554;51.546;6.776;2023-10-13T09:27:25;22.40;69.80
70184;DHT22;57554;51.546;6.776;2023-10-13T09:30:02;22.40;69.50
70184;DHT22;57554;51.546;6.776;2023-10-13T09:32:46;22.40;69.50
70184;DHT22;57554;51.546;6.776;2023-10-13T09:35:19;22.50;69.60
70184;DHT22;57554;51.546;6.776;2023-10-13T09:37:45;22.60;69.30
70184;DHT22;57554;51.546;6.776;2023-10-13T09:40:17;22.70;68.80
70184;DHT22;57554;51.546;6.776;2023-10-13T09:43:04;22.70;68.30
70184;DHT22;57554;51.546;6.776;2023-10-13T09:45:41;22.80;68.20
70184;DHT22;57554;51.546;6.776;2023-10-13T09:48:24;22.80;67.10
70184;DHT22;57554;51.546;6.776;2023-10-13T09:50:55;22.80;66.80
70184;DHT22;57554;51.546;6.776;2023-10-13T09:53:24;22.80;65.80
70184;DHT22;57554;51.546;6.776;2023-10-13T09:55:58;22.90;65.10
70184;DHT22;57554;51.546;6.776;2023-10-13T09:58:28;22.90;64.80
70184;DHT22;57554;51.546;6.776;2023-10-13T10:01:03;22.90;64.70
70184;DHT22;57554;51.546;6.776;2023-10-13T10:03:54;23.00;65.20
70184;DHT22;57554;51.546;6.776;2023-10-13T10:06:38;23.20;64.00
70184;DHT22;57554;51.546;6.776;2023-10-13T10:09:11;23.20;63.80
70184;DHT22;57554;51.546;6.776;2023-10-13T10:14:36;23.40;63.20
70184;DHT22;57554;51.546;6.776;2023-10-13T10:17:08;23.40;62.10
70184;DHT22;57554;51.546;6.776;2023-10-13T10:19:46;23.40;62.00
70184;DHT22;57554;51.546;6.776;2023-10-13T10:22:12;23.40;62.10
70184;DHT22;57554;51.546;6.776;2023-10-13T10:24:44;23.40;61.50
70184;DHT22;57554;51.546;6.776;2023-10-13T10:27:10;23.40;61.30
70184;DHT22;57554;51.546;6.776;2023-10-13T10:29:52;23.40;60.70
70184;DHT22;57554;51.546;6.776;2023-10-13T10:32:18;23.30;61.00
70184;DHT22;57554;51.546;6.776;2023-10-13T10:34:44;23.30;60.40
70184;DHT22;57554;51.546;6.776;2023-10-13T10:37:11;23.30;60.40
70184;DHT22;57554;51.546;6.776;2023-10-13T10:39:38;23.30;60.60
70184;DHT22;57554;51.546;6.776;2023-10-13T10:42:11;23.30;60.40
70184;DHT22;57554;51.546;6.776;2023-10-13T10:44:54;23.30;60.30
70184;DHT22;57554;51.546;6.776;2023-10-13T10:47:30;23.30;59.90
70184;DHT22;57554;51.546;6.776;2023-10-13T10:50:00;23.40;60.40
70184;DHT22;57554;51.546;6.776;2023-10-13T10:52:33;23.40;60.30
70184;DHT22;57554;51.546;6.776;2023-10-13T10:55:03;23.40;60.20
70184;DHT22;57554;51.546;6.776;2023-10-13T10:57:39;23.50;60.20
70184;DHT22;57554;51.546;6.776;2023-10-13T11:00:20;23.50;59.70
70184;DHT22;57554;51.546;6.776;2023-10-13T11:02:57;23.50;59.60
70184;DHT22;57554;51.546;6.776;2023-10-13T11:05:25;23.50;59.70
70184;DHT22;57554;51.546;6.776;2023-10-13T11:07:58;23.60;59.10
70184;DHT22;57554;51.546;6.776;2023-10-13T11:10:24;23.60;59.60
70184;DHT22;57554;51.546;6.776;2023-10-13T11:12:57;23.60;59.20
70184;DHT22;57554;51.546;6.776;2023-10-13T11:15:43;23.60;59.20
70184;DHT22;57554;51.546;6.776;2023-10-13T11:18:12;23.60;59.40
70184;DHT22;57554;51.546;6.776;2023-10-13T11:20:59;23.60;58.80
70184;DHT22;57554;51.546;6.776;2023-10-13T11:23:25;23.70;59.20
70184;DHT22;57554;51.546;6.776;2023-10-13T11:25:58;23.80;59.30
70184;DHT22;57554;51.546;6.776;2023-10-13T11:28:26;23.90;59.30
70184;DHT22;57554;51.546;6.776;2023-10-13T11:30:58;24.20;59.50
70184;DHT22;57554;51.546;6.776;2023-10-13T11:33:25;24.40;58.40
70184;DHT22;57554;51.546;6.776;2023-10-13T11:35:57;24.60;57.80
70184;DHT22;57554;51.546;6.776;2023-10-13T11:38:30;24.70;57.10
70184;DHT22;57554;51.546;6.776;2023-10-13T11:41:28;24.80;56.90
70184;DHT22;57554;51.546;6.776;2023-10-13T11:43:59;24.90;57.10
70184;DHT22;57554;51.546;6.776;2023-10-13T11:46:43;24.90;56.10
70184;DHT22;57554;51.546;6.776;2023-10-13T11:49:10;24.80;56.30
70184;DHT22;57554;51.546;6.776;2023-10-13T11:51:39;24.80;55.70
70184;DHT22;57554;51.546;6.776;2023-10-13T11:54:05;24.70;55.90
70184;DHT22;57554;51.546;6.776;2023-10-13T11:56:30;24.60;56.00
70184;DHT22;57554;51.546;6.776;2023-10-13T11:58:56;24.60;56.30
70184;DHT22;57554;51.546;6.776;2023-10-13T12:01:27;24.60;56.50
70184;DHT22;57554;51.546;6.776;2023-10-13T12:04:12;24.70;56.60
70184;DHT22;57554;51.546;6.776;2023-10-13T12:06:57;24.80;55.60
70184;DHT22;57554;51.546;6.776;2023-10-13T12:09:43;24.90;54.90
70184;DHT22;57554;51.546;6.776;2023-10-13T12:12:30;24.90;54.80
70184;DHT22;57554;51.546;6.776;2023-10-13T12:15:07;25.00;54.90
70184;DHT22;57554;51.546;6.776;2023-10-13T12:17:40;25.00;54.10
70184;DHT22;57554;51.546;6.776;2023-10-13T12:20:10;25.10;53.70
70184;DHT22;57554;51.546;6.776;2023-10-13T12:22:39;25.10;53.60
70184;DHT22;57554;51.546;6.776;2023-10-13T12:25:05;25.00;53.60
70184;DHT22;57554;51.546;6.776;2023-10-13T12:27:45;25.00;53.80
70184;DHT22;57554;51.546;6.776;2023-10-13T12:30:13;24.90;53.00
70184;DHT22;57554;51.546;6.776;2023-10-13T12:32:42;24.90;53.40
70184;DHT22;57554;51.546;6.776;2023-10-13T12:35:20;24.90;52.80
70184;DHT22;57554;51.546;6.776;2023-10-13T12:38:03;24.90;52.70
70184;DHT22;57554;51.546;6.776;2023-10-13T12:40:33;24.90;52.40
70184;DHT22;57554;51.546;6.776;2023-10-13T12:43:18;24.90;51.80
70184;DHT22;57554;51.546;6.776;2023-10-13T12:46:02;24.90;51.60
70184;DHT22;57554;51.546;6.776;2023-10-13T12:48:46;24.90;51.70
70184;DHT22;57554;51.546;6.776;2023-10-13T12:51:23;24.90;52.60
70184;DHT22;57554;51.546;6.776;2023-10-13T12:53:58;24.90;51.50
70184;DHT22;57554;51.546;6.776;2023-10-13T12:56:38;24.90;51.30
70184;DHT22;57554;51.546;6.776;2023-10-13T12:59:10;24.90;51.30
70184;DHT22;57554;51.546;6.776;2023-10-13T13:01:39;24.90;50.80
70184;DHT22;57554;51.546;6.776;2023-10-13T13:04:08;24.80;50.50
70184;DHT22;57554;51.546;6.776;2023-10-13T13:06:44;24.80;50.30
70184;DHT22;57554;51.546;6.776;2023-10-13T13:09:09;24.80;50.40
70184;DHT22;57554;51.546;6.776;2023-10-13T13:11:35;24.80;49.90
70184;DHT22;57554;51.546;6.776;2023-10-13T13:14:14;24.80;50.10
70184;DHT22;57554;51.546;6.776;2023-10-13T13:16:39;24.70;50.00
70184;DHT22;57554;51.546;6.776;2023-10-13T13:19:05;24.80;49.60
70184;DHT22;57554;51.546;6.776;2023-10-13T13:21:38;24.80;49.60
70184;DHT22;57554;51.546;6.776;2023-10-13T13:24:05;24.80;49.30
70184;DHT22;57554;51.546;6.776;2023-10-13T13:26:37;24.80;49.50
70184;DHT22;57554;51.546;6.776;2023-10-13T13:29:06;24.80;49.50
70184;DHT22;57554;51.546;6.776;2023-10-13T13:31:34;24.80;48.90
70184;DHT22;57554;51.546;6.776;2023-10-13T13:34:07;24.80;49.40
70184;DHT22;57554;51.546;6.776;2023-10-13T13:36:34;24.80;49.10
70184;DHT22;57554;51.546;6.776;2023-10-13T13:39:00;24.80;48.40
70184;DHT22;57554;51.546;6.776;2023-10-13T13:41:27;24.80;49.20
70184;DHT22;57554;51.546;6.776;2023-10-13T13:43:53;24.80;49.50
70184;DHT22;57554;51.546;6.776;2023-10-13T13:46:25;24.80;49.20
70184;DHT22;57554;51.546;6.776;2023-10-13T13:48:55;24.70;49.10
70184;DHT22;57554;51.546;6.776;2023-10-13T13:51:25;24.70;48.90
70184;DHT22;57554;51.546;6.776;2023-10-13T13:53:55;24.60;48.70
70184;DHT22;57554;51.546;6.776;2023-10-13T13:56:22;24.60;48.40
70184;DHT22;57554;51.546;6.776;2023-10-13T13:58:51;24.50;48.80
70184;DHT22;57554;51.546;6.776;2023-10-13T14:01:18;24.50;48.60
70184;DHT22;57554;51.546;6.776;2023-10-13T14:03:45;24.50;48.80
70184;DHT22;57554;51.546;6.776;2023-10-13T14:06:15;24.40;49.10
70184;DHT22;57554;51.546;6.776;2023-10-13T14:08:49;24.40;49.00
70184;DHT22;57554;51.546;6.776;2023-10-13T14:11:17;24.40;48.90
70184;DHT22;57554;51.546;6.776;2023-10-13T14:14:01;24.40;49.30
70184;DHT22;57554;51.546;6.776;2023-10-13T14:16:29;24.30;48.90
70184;DHT22;57554;51.546;6.776;2023-10-13T14:18:55;24.30;49.20
70184;DHT22;57554;51.546;6.776;2023-10-13T14:21:21;24.30;49.00
70184;DHT22;57554;51.546;6.776;2023-10-13T14:23:50;24.30;49.00
70184;DHT22;57554;51.546;6.776;2023-10-13T14:26:19;24.30;49.20
70184;DHT22;57554;51.546;6.776;2023-10-13T14:28:46;24.20;49.20
70184;DHT22;57554;51.546;6.776;2023-10-13T14:31:31;24.20;49.00
70184;DHT22;57554;51.546;6.776;2023-10-13T14:33:57;24.10;48.70
70184;DHT22;57554;51.546;6.776;2023-10-13T14:36:24;24.10;48.80
70184;DHT22;57554;51.546;6.776;2023-10-13T14:38:54;24.10;49.00
70184;DHT22;57554;51.546;6.776;2023-10-13T14:41:19;24.00;49.10
70184;DHT22;57554;51.546;6.776;2023-10-13T14:43:45;24.00;49.50
70184;DHT22;57554;51.546;6.776;2023-10-13T14:46:20;24.00;49.20
70184;DHT22;57554;51.546;6.776;2023-10-13T14:48:52;24.00;49.00
70184;DHT22;57554;51.546;6.776;2023-10-13T14:51:18;24.00;49.20
70184;DHT22;57554;51.546;6.776;2023-10-13T14:53:47;23.90;49.20
70184;DHT22;57554;51.546;6.776;2023-10-13T14:56:14;23.90;49.10
70184;DHT22;57554;51.546;6.776;2023-10-13T14:58:40;23.90;49.30
70184;DHT22;57554;51.546;6.776;2023-10-13T15:01:13;23.90;49.40
70184;DHT22;57554;51.546;6.776;2023-10-13T15:03:44;23.90;49.60
70184;DHT22;57554;51.546;6.776;2023-10-13T15:06:17;23.90;49.50
70184;DHT22;57554;51.546;6.776;2023-10-13T15:08:44;23.90;49.40
70184;DHT22;57554;51.546;6.776;2023-10-13T15:11:12;23.90;49.40
70184;DHT22;57554;51.546;6.776;2023-10-13T15:13:41;23.80;49.70
70184;DHT22;57554;51.546;6.776;2023-10-13T15:16:21;23.80;49.70
70184;DHT22;57554;51.546;6.776;2023-10-13T15:18:48;23.80;49.60
70184;DHT22;57554;51.546;6.776;2023-10-13T15:21:21;23.80;49.80
70184;DHT22;57554;51.546;6.776;2023-10-13T15:23:48;23.70;49.60
70184;DHT22;57554;51.546;6.776;2023-10-13T15:26:19;23.70;49.50
70184;DHT22;57554;51.546;6.776;2023-10-13T15:28:47;23.70;49.50
70184;DHT22;57554;51.546;6.776;2023-10-13T15:31:19;23.70;49.70
70184;DHT22;57554;51.546;6.776;2023-10-13T15:34:13;23.60;49.90
70184;DHT22;57554;51.546;6.776;2023-10-13T15:36:40;23.60;49.70
70184;DHT22;57554;51.546;6.776;2023-10-13T15:39:08;23.60;49.80
70184;DHT22;57554;51.546;6.776;2023-10-13T15:41:36;23.60;50.00
70184;DHT22;57554;51.546;6.776;2023-10-13T15:44:05;23.50;50.20
70184;DHT22;57554;51.546;6.776;2023-10-13T15:46:35;23.50;50.10
70184;DHT22;57554;51.546;6.776;2023-10-13T15:49:01;23.50;49.90
70184;DHT22;57554;51.546;6.776;2023-10-13T15:51:32;23.50;50.00
70184;DHT22;57554;51.546;6.776;2023-10-13T15:53:57;23.50;50.10
70184;DHT22;57554;51.546;6.776;2023-10-13T15:56:25;23.50;50.00
70184;DHT22;57554;51.546;6.776;2023-10-13T15:58:50;23.40;50.10
70184;DHT22;57554;51.546;6.776;2023-10-13T16:01:16;23.40;50.00
70184;DHT22;57554;51.546;6.776;2023-10-13T16:03:43;23.40;50.00
70184;DHT22;57554;51.546;6.776;2023-10-13T16:06:13;23.40;50.40
70184;DHT22;57554;51.546;6.776;2023-10-13T16:08:39;23.40;50.30
70184;DHT22;57554;51.546;6.776;2023-10-13T16:11:10;23.30;50.40
70184;DHT22;57554;51.546;6.776;2023-10-13T16:13:42;23.40;50.40
70184;DHT22;57554;51.546;6.776;2023-10-13T16:16:17;23.40;50.30
70184;DHT22;57554;51.546;6.776;2023-10-13T16:18:46;23.40;50.10